createdAt,value
2019-02-21T00:04:19.929Z,99255.91
2019-02-21T00:09:25.495Z,99256.31
2019-02-21T00:14:30.944Z,99262.98
2019-02-21T00:19:36.490Z,99263.58
2019-02-21T00:24:41.573Z,99264.95
2019-02-21T00:29:47.337Z,99259.81
2019-02-21T00:34:52.785Z,99267.97
2019-02-21T00:39:58.253Z,99271.06
2019-02-21T00:45:03.346Z,99272.23
2019-02-21T00:50:08.516Z,99271.06
2019-02-21T00:55:13.991Z,99275.53
2019-02-21T01:00:19.180Z,99281.70
2019-02-21T01:05:24.344Z,99283.79
2019-02-21T01:10:30.536Z,99279.07
2019-02-21T01:15:35.719Z,99282.17
2019-02-21T01:20:41.189Z,99286.25
2019-02-21T01:25:46.629Z,99281.23
2019-02-21T01:30:56.946Z,99287.31
2019-02-21T01:35:59.559Z,99280.34
2019-02-21T01:41:05.079Z,99276.73
2019-02-21T01:46:10.566Z,99280.66
2019-02-21T01:51:15.655Z,99275.25
2019-02-21T01:56:20.685Z,99275.05
2019-02-21T02:01:25.890Z,99268.45
2019-02-21T02:06:30.962Z,99259.58
2019-02-21T02:11:36.708Z,99250.05
2019-02-21T02:16:41.866Z,99251.67
2019-02-21T02:21:47.160Z,99252.30
2019-02-21T02:26:52.162Z,99250.79
2019-02-21T02:31:57.654Z,99250.27
2019-02-21T02:37:02.653Z,99247.81
2019-02-21T02:42:08.191Z,99247.06
2019-02-21T02:47:15.141Z,99242.09
2019-02-21T02:52:20.551Z,99244.66
2019-02-21T02:57:26.114Z,99239.78
2019-02-21T03:02:31.266Z,99228.72
2019-02-21T03:07:36.425Z,99234.64
2019-02-21T03:12:41.583Z,99228.05
2019-02-21T03:17:46.759Z,99232.34
2019-02-21T03:22:51.785Z,99233.96
2019-02-21T03:27:56.951Z,99238.64
2019-02-21T03:33:02.926Z,99237.44
2019-02-21T03:38:08.225Z,99239.86
2019-02-21T03:43:13.403Z,99241.95
2019-02-21T03:48:19.814Z,99250.11
2019-02-21T03:53:24.895Z,99253.73
2019-02-21T03:58:30.020Z,99253.26
2019-02-21T04:03:35.563Z,99261.70
2019-02-21T04:08:40.710Z,99261.91
2019-02-21T04:13:45.980Z,99264.63
2019-02-21T04:18:51.121Z,99265.88
2019-02-21T04:23:57.073Z,99257.29
2019-02-21T04:29:02.454Z,99260.83
2019-02-21T04:34:07.456Z,99257.47
2019-02-21T04:39:12.752Z,99258.28
2019-02-21T04:44:17.752Z,99257.53
2019-02-21T04:49:23.243Z,99252.92
2019-02-21T04:54:29.360Z,99258.22
2019-02-21T04:59:34.436Z,99252.35
2019-02-21T05:04:42.005Z,99251.73
2019-02-21T05:09:57.657Z,99256.61
2019-02-21T05:14:54.932Z,99248.75
2019-02-21T05:20:00.458Z,99258.33
2019-02-21T05:25:05.923Z,99258.66
2019-02-21T05:30:14.682Z,99258.23
2019-02-21T05:35:37.244Z,99258.91
2019-02-21T05:41:07.657Z,99256.09
2019-02-21T05:46:37.510Z,99250.47
2019-02-21T05:51:49.968Z,99253.78
2019-02-21T05:57:04.370Z,99254.29
2019-02-21T06:02:53.087Z,99261.46
2019-02-21T06:08:01.173Z,99263.72
2019-02-21T06:13:27.488Z,99266.28
2019-02-21T06:18:49.843Z,99265.75
2019-02-21T06:24:04.418Z,99259.67
2019-02-21T06:29:28.501Z,99263.28
2019-02-21T06:34:33.923Z,99256.80
2019-02-21T06:39:39.029Z,99258.55
2019-02-21T06:44:44.539Z,99262.11
2019-02-21T06:49:49.918Z,99269.77
2019-02-21T06:54:55.343Z,99275.67
2019-02-21T07:00:00.443Z,99275.10
2019-02-21T07:05:05.959Z,99275.05
2019-02-21T07:10:11.301Z,99286.79
2019-02-21T07:15:17.119Z,99297.38
2019-02-21T07:20:22.182Z,99300.56
2019-02-21T07:25:55.090Z,99299.34
2019-02-21T07:31:00.098Z,99298.81
2019-02-21T07:36:05.683Z,99304.03
2019-02-21T07:41:11.000Z,99311.39
2019-02-21T07:46:16.764Z,99312.66
2019-02-21T07:51:22.051Z,99316.20
2019-02-21T07:56:27.234Z,99319.10
2019-02-21T08:01:32.323Z,99324.62
2019-02-21T08:06:37.480Z,99323.73
2019-02-21T08:11:42.739Z,99326.12
2019-02-21T08:16:47.950Z,99323.75
2019-02-21T08:21:53.636Z,99328.97
2019-02-21T08:26:59.387Z,99328.74
2019-02-21T08:32:04.948Z,99329.44
2019-02-21T08:37:11.381Z,99331.17
2019-02-21T08:42:16.842Z,99325.33
2019-02-21T08:47:22.271Z,99327.84
2019-02-21T08:52:30.008Z,99335.63
2019-02-21T08:57:34.560Z,99339.61
2019-02-21T09:02:39.804Z,99334.17
2019-02-21T09:07:46.643Z,99336.50
2019-02-21T09:12:52.091Z,99327.80
2019-02-21T09:17:57.327Z,99330.14
2019-02-21T09:23:03.154Z,99322.64
2019-02-21T09:28:08.343Z,99326.91
2019-02-21T09:33:17.550Z,99323.30
2019-02-21T09:38:20.473Z,99322.63
2019-02-21T09:43:25.578Z,99324.26
2019-02-21T09:48:31.374Z,99319.48
2019-02-21T09:53:36.888Z,99322.91
2019-02-21T09:58:42.683Z,99321.57
2019-02-21T10:03:47.915Z,99326.65
2019-02-21T10:08:53.084Z,99323.67
2019-02-21T10:13:58.681Z,99321.16
2019-02-21T10:19:04.188Z,99326.54
2019-02-21T10:24:10.262Z,99317.78
2019-02-21T10:29:15.791Z,99318.45
2019-02-21T10:34:21.942Z,99323.31
2019-02-21T10:39:27.184Z,99318.98
2019-02-21T10:44:32.407Z,99323.56
2019-02-21T10:49:37.512Z,99319.88
2019-02-21T10:54:42.820Z,99322.70
2019-02-21T10:59:47.977Z,99320.42
2019-02-21T11:04:55.036Z,99315.09
2019-02-21T11:10:00.013Z,99311.08
2019-02-21T11:15:07.152Z,99308.59
2019-02-21T11:20:14.553Z,99301.61
2019-02-21T11:25:20.754Z,99301.05
2019-02-21T11:30:25.923Z,99304.90
2019-02-21T11:35:31.359Z,99298.89
2019-02-21T11:40:37.546Z,99295.05
2019-02-21T11:45:53.151Z,99287.86
2019-02-21T11:50:50.803Z,99282.95
2019-02-21T11:55:55.993Z,99274.70
2019-02-21T12:01:01.265Z,99258.03
2019-02-21T12:06:08.136Z,99266.19
2019-02-21T12:11:13.371Z,99240.58
2019-02-21T12:16:18.543Z,99233.02
2019-02-21T12:21:23.767Z,99227.41
2019-02-21T12:26:29.614Z,99232.88
2019-02-21T12:31:34.784Z,99221.11
2019-02-21T12:36:40.951Z,99221.36
2019-02-21T12:41:46.228Z,99214.05
2019-02-21T12:46:51.954Z,99206.41
2019-02-21T12:51:57.568Z,99195.33
2019-02-21T12:57:03.165Z,99198.61
2019-02-21T13:02:08.401Z,99201.39
2019-02-21T13:07:13.639Z,99189.34
2019-02-21T13:12:18.805Z,99177.09
2019-02-21T13:17:24.340Z,99176.83
2019-02-21T13:22:29.860Z,99170.60
2019-02-21T13:27:35.071Z,99186.30
2019-02-21T13:32:40.234Z,99195.47
2019-02-21T13:37:45.939Z,99212.81
2019-02-21T13:42:51.190Z,99208.07
2019-02-21T13:47:56.337Z,99213.03
2019-02-21T13:53:02.081Z,99203.05
2019-02-21T13:58:07.237Z,99217.70
2019-02-21T14:03:12.536Z,99209.96
2019-02-21T14:08:18.154Z,99217.39
2019-02-21T14:13:23.433Z,99236.11
2019-02-21T14:18:28.981Z,99224.94
2019-02-21T14:23:34.205Z,99226.76
2019-02-21T14:28:39.382Z,99214.66
2019-02-21T14:33:44.546Z,99211.02
2019-02-21T14:38:50.265Z,99206.33
2019-02-21T14:43:56.674Z,99226.73
2019-02-21T14:49:02.302Z,99215.84
2019-02-21T14:54:07.918Z,99214.31
2019-02-21T14:59:13.380Z,99214.56
2019-02-21T15:04:18.840Z,99216.37
2019-02-21T15:09:24.002Z,99224.41
2019-02-21T15:14:29.597Z,99209.23
2019-02-21T15:19:34.763Z,99215.50
2019-02-21T15:24:40.081Z,99221.48
2019-02-21T15:29:45.554Z,99227.16
2019-02-21T15:34:51.371Z,99208.26
2019-02-21T15:39:56.573Z,99211.59
2019-02-21T15:45:02.698Z,99214.92
2019-02-21T15:50:10.004Z,99215.60
2019-02-21T15:55:15.791Z,99210.36
2019-02-21T16:00:21.062Z,99210.55
2019-02-21T16:05:26.693Z,99228.62
2019-02-21T16:10:31.859Z,99223.52
2019-02-21T16:15:37.021Z,99223.03
2019-02-21T16:20:42.206Z,99229.73
2019-02-21T16:25:48.057Z,99224.40
2019-02-21T16:30:53.782Z,99223.80
2019-02-21T16:35:59.140Z,99225.61
2019-02-21T16:41:05.182Z,99234.76
2019-02-21T16:46:10.430Z,99235.10
2019-02-21T16:51:16.285Z,99242.73
2019-02-21T16:56:21.548Z,99251.34
2019-02-21T17:01:26.818Z,99252.52
2019-02-21T17:06:33.060Z,99253.23
2019-02-21T17:11:38.746Z,99255.09
2019-02-21T17:16:43.911Z,99269.20
2019-02-21T17:21:49.113Z,99274.98
2019-02-21T17:26:55.230Z,99265.28
2019-02-21T17:32:00.610Z,99261.27
2019-02-21T17:37:10.215Z,99265.59
2019-02-21T17:42:16.526Z,99274.05
2019-02-21T17:47:22.705Z,99271.97
2019-02-21T17:52:27.793Z,99274.53
2019-02-21T17:57:33.019Z,99278.69
2019-02-21T18:02:38.728Z,99288.81
2019-02-21T18:07:43.994Z,99294.92
2019-02-21T18:12:49.269Z,99295.95
2019-02-21T18:17:54.830Z,99280.20
2019-02-21T18:23:00.794Z,99280.05
2019-02-21T18:28:07.111Z,99276.77
2019-02-21T18:33:12.703Z,99257.16
2019-02-21T18:38:17.902Z,99263.47
2019-02-21T18:43:23.222Z,99270.95
2019-02-21T18:48:28.645Z,99273.50
2019-02-21T18:53:33.978Z,99278.00
2019-02-21T18:58:39.769Z,99290.16
2019-02-21T19:03:45.014Z,99291.45
2019-02-21T19:08:50.519Z,99288.00
2019-02-21T19:13:56.032Z,99280.53
2019-02-21T19:19:01.271Z,99296.31
2019-02-21T19:24:06.850Z,99299.07
2019-02-21T19:29:12.224Z,99290.31
2019-02-21T19:34:19.068Z,99291.36
2019-02-21T19:39:25.078Z,99297.51
2019-02-21T19:44:30.424Z,99301.66
2019-02-21T19:49:36.089Z,99295.94
2019-02-21T19:54:41.653Z,99295.11
2019-02-21T19:59:48.038Z,99301.50
2019-02-21T20:04:53.190Z,99300.20
2019-02-21T20:09:58.650Z,99293.91
2019-02-21T20:15:04.141Z,99309.30
2019-02-21T20:20:11.051Z,99307.97
2019-02-21T20:25:16.725Z,99310.05
2019-02-21T20:30:22.192Z,99311.68
2019-02-21T20:35:27.532Z,99315.30
2019-02-21T20:40:33.598Z,99309.27
2019-02-21T20:45:38.921Z,99322.11
2019-02-21T20:50:44.283Z,99320.14
2019-02-21T20:55:49.577Z,99310.20
2019-02-21T21:00:54.867Z,99317.27
2019-02-21T21:06:00.150Z,99318.38
2019-02-21T21:11:05.431Z,99322.28
2019-02-21T21:16:10.691Z,99331.13
2019-02-21T21:21:15.858Z,99331.49
2019-02-21T21:26:21.287Z,99331.89
2019-02-21T21:31:26.977Z,99338.00
2019-02-21T21:36:32.567Z,99335.06
2019-02-21T21:41:37.763Z,99336.69
2019-02-21T21:46:42.963Z,99340.50
2019-02-21T21:51:48.608Z,99345.50
2019-02-21T21:56:53.854Z,99353.70
2019-02-21T22:01:59.296Z,99360.98
2019-02-21T22:07:04.598Z,99358.34
2019-02-21T22:12:10.181Z,99355.11
2019-02-21T22:17:15.737Z,99367.15
2019-02-21T22:22:21.997Z,99359.41
2019-02-21T22:27:27.563Z,99354.09
2019-02-21T22:32:33.330Z,99353.27
2019-02-21T22:37:39.988Z,99367.95
2019-02-21T22:42:46.652Z,99358.70
2019-02-21T22:47:51.812Z,99365.31
2019-02-21T22:52:57.299Z,99368.00
2019-02-21T22:58:02.552Z,99367.36
2019-02-21T23:03:08.256Z,99375.95
2019-02-21T23:08:47.673Z,99376.63
2019-02-21T23:13:53.502Z,99373.35
2019-02-21T23:18:58.766Z,99367.20
2019-02-21T23:24:03.993Z,99374.83
2019-02-21T23:29:09.159Z,99375.01
2019-02-21T23:34:28.522Z,99382.30
2019-02-21T23:39:38.240Z,99387.75
2019-02-21T23:44:40.600Z,99379.14
2019-02-21T23:49:46.133Z,99381.94
2019-02-21T23:54:51.288Z,99376.50
2019-02-21T23:59:56.877Z,99384.91
